createdAt,value
2023-04-23T00:01:47.913Z,2.40
2023-04-23T00:04:16.472Z,3.17
2023-04-23T00:06:43.186Z,2.40
2023-04-23T00:09:09.969Z,2.33
2023-04-23T00:11:36.702Z,2.30
2023-04-23T00:14:03.315Z,2.50
2023-04-23T00:16:30.095Z,2.80
2023-04-23T00:18:56.556Z,2.03
2023-04-23T00:21:23.094Z,2.53
2023-04-23T00:23:49.524Z,2.53
2023-04-23T00:26:17.397Z,2.03
2023-04-23T00:28:43.947Z,2.20
2023-04-23T00:31:10.427Z,2.47
2023-04-23T00:33:36.883Z,2.40
2023-04-23T00:36:03.335Z,2.22
2023-04-23T00:38:29.833Z,2.72
2023-04-23T00:40:56.420Z,2.20
2023-04-23T00:43:24.087Z,2.75
2023-04-23T00:45:50.927Z,2.15
2023-04-23T00:48:17.904Z,2.75
2023-04-23T00:50:44.574Z,2.72
2023-04-23T00:53:11.058Z,3.08
2023-04-23T00:55:37.755Z,2.70
2023-04-23T00:58:04.457Z,2.65
2023-04-23T01:00:30.946Z,2.95
2023-04-23T01:02:58.580Z,2.80
2023-04-23T01:05:25.610Z,2.97
2023-04-23T01:07:52.048Z,2.95
2023-04-23T01:10:18.727Z,3.20
2023-04-23T01:12:45.167Z,3.25
2023-04-23T01:15:11.775Z,2.90
2023-04-23T01:17:38.420Z,3.42
2023-04-23T01:20:06.570Z,3.17
2023-04-23T01:22:36.481Z,3.42
2023-04-23T01:25:04.118Z,3.30
2023-04-23T01:29:58.389Z,3.08
2023-04-23T01:32:25.101Z,3.10
2023-04-23T01:34:54.094Z,3.63
2023-04-23T01:37:21.296Z,3.17
2023-04-23T01:39:47.734Z,2.70
2023-04-23T01:42:14.150Z,2.92
2023-04-23T01:44:40.934Z,2.70
2023-04-23T01:47:07.653Z,2.42
2023-04-23T01:49:34.289Z,2.15
2023-04-23T01:52:00.773Z,2.20
2023-04-23T01:54:27.124Z,2.20
2023-04-23T01:56:54.932Z,1.70
2023-04-23T01:59:22.762Z,1.60
2023-04-23T02:01:50.070Z,1.80
2023-04-23T02:04:17.796Z,1.80
2023-04-23T02:06:47.487Z,1.60
2023-04-23T02:09:14.072Z,1.65
2023-04-23T02:11:40.559Z,1.60
2023-04-23T02:14:08.731Z,1.73
2023-04-23T02:16:35.173Z,1.50
2023-04-23T02:19:01.979Z,1.70
2023-04-23T02:21:28.682Z,2.03
2023-04-23T02:23:55.420Z,1.92
2023-04-23T02:26:22.816Z,1.88
2023-04-23T02:28:49.315Z,1.70
2023-04-23T02:31:16.511Z,1.73
2023-04-23T02:33:43.144Z,1.90
2023-04-23T02:36:11.612Z,1.98
2023-04-23T02:38:41.454Z,2.00
2023-04-23T02:41:08.143Z,2.00
2023-04-23T02:43:34.578Z,1.90
2023-04-23T02:46:07.851Z,2.00
2023-04-23T02:48:39.735Z,2.15
2023-04-23T02:51:08.568Z,2.38
2023-04-23T02:53:35.103Z,2.08
2023-04-23T02:56:02.802Z,2.08
2023-04-23T02:58:29.655Z,2.38
2023-04-23T03:00:56.599Z,2.22
2023-04-23T03:03:26.532Z,2.20
2023-04-23T03:05:53.902Z,2.63
2023-04-23T03:08:20.427Z,2.30
2023-04-23T03:10:46.816Z,2.13
2023-04-23T03:13:13.232Z,2.00
2023-04-23T03:15:40.830Z,2.17
2023-04-23T03:20:35.767Z,1.90
2023-04-23T03:23:02.306Z,2.20
2023-04-23T03:25:28.793Z,2.33
2023-04-23T03:27:55.167Z,2.42
2023-04-23T03:30:21.626Z,2.40
2023-04-23T03:32:48.412Z,2.72
2023-04-23T03:35:14.906Z,2.95
2023-04-23T03:37:41.417Z,3.47
2023-04-23T03:40:09.216Z,4.40
2023-04-23T03:42:35.950Z,3.13
2023-04-23T03:45:02.407Z,3.47
2023-04-23T03:47:28.854Z,3.75
2023-04-23T03:49:55.520Z,3.95
2023-04-23T03:52:22.005Z,4.18
2023-04-23T03:54:48.451Z,4.15
2023-04-23T03:57:14.870Z,4.00
2023-04-23T03:59:41.502Z,4.03
2023-04-23T04:02:08.055Z,4.28
2023-04-23T04:04:34.816Z,4.68
2023-04-23T04:07:01.687Z,3.97
2023-04-23T04:09:28.807Z,3.65
2023-04-23T04:11:56.052Z,4.53
2023-04-23T04:14:22.911Z,4.43
2023-04-23T04:16:49.898Z,4.22
2023-04-23T04:19:16.567Z,4.25
2023-04-23T04:21:42.932Z,4.65
2023-04-23T04:24:11.507Z,3.88
2023-04-23T04:26:38.074Z,4.28
2023-04-23T04:29:04.633Z,4.53
2023-04-23T04:31:31.389Z,4.65
2023-04-23T04:33:58.415Z,4.50
2023-04-23T04:36:26.988Z,5.05
2023-04-23T04:38:55.990Z,4.72
2023-04-23T04:41:25.390Z,4.28
2023-04-23T04:43:52.295Z,4.07
2023-04-23T04:46:21.551Z,4.68
2023-04-23T04:48:48.489Z,4.30
2023-04-23T04:51:15.583Z,4.35
2023-04-23T04:53:42.071Z,4.68
2023-04-23T04:56:08.856Z,4.38
2023-04-23T04:58:35.520Z,4.90
2023-04-23T05:01:02.364Z,4.60
2023-04-23T05:03:28.960Z,4.95
2023-04-23T05:05:56.475Z,5.15
2023-04-23T05:08:22.918Z,5.05
2023-04-23T05:10:50.463Z,4.88
2023-04-23T05:13:17.440Z,5.20
2023-04-23T05:15:43.961Z,4.93
2023-04-23T05:18:10.841Z,4.90
2023-04-23T05:20:38.142Z,4.78
2023-04-23T05:23:04.605Z,4.15
2023-04-23T05:25:31.681Z,4.60
2023-04-23T05:27:58.158Z,4.68
2023-04-23T05:30:24.600Z,4.57
2023-04-23T05:32:51.227Z,3.53
2023-04-23T05:35:17.752Z,3.10
2023-04-23T05:37:44.343Z,2.92
2023-04-23T05:40:11.137Z,2.72
2023-04-23T05:42:38.344Z,2.65
2023-04-23T05:45:07.332Z,2.85
2023-04-23T05:47:35.314Z,2.83
2023-04-23T05:50:02.754Z,2.60
2023-04-23T05:52:33.597Z,2.35
2023-04-23T05:55:00.222Z,2.92
2023-04-23T05:57:26.747Z,3.40
2023-04-23T05:59:53.367Z,2.42
2023-04-23T06:02:21.346Z,2.20
2023-04-23T06:04:49.206Z,2.13
2023-04-23T06:07:16.190Z,2.00
2023-04-23T06:09:42.765Z,1.70
2023-04-23T06:12:09.713Z,1.40
2023-04-23T06:14:36.190Z,1.20
2023-04-23T06:17:02.869Z,1.20
2023-04-23T06:19:29.372Z,1.10
2023-04-23T06:21:56.182Z,1.27
2023-04-23T06:24:22.751Z,1.23
2023-04-23T06:26:49.415Z,1.40
2023-04-23T06:29:15.822Z,1.40
2023-04-23T06:31:42.304Z,1.38
2023-04-23T06:34:08.987Z,1.40
2023-04-23T06:36:35.535Z,1.38
2023-04-23T06:39:02.060Z,1.27
2023-04-23T06:41:28.637Z,1.38
2023-04-23T06:43:55.017Z,1.25
2023-04-23T06:46:21.520Z,0.90
2023-04-23T06:48:48.008Z,1.08
2023-04-23T06:51:14.878Z,1.20
2023-04-23T06:53:41.623Z,1.10
2023-04-23T06:56:08.595Z,0.98
2023-04-23T06:58:35.053Z,0.90
2023-04-23T07:01:04.159Z,1.10
2023-04-23T07:03:34.379Z,1.10
2023-04-23T07:06:01.255Z,1.08
2023-04-23T07:08:27.674Z,0.90
2023-04-23T07:10:54.128Z,0.90
2023-04-23T07:13:20.569Z,0.90
2023-04-23T07:15:47.282Z,0.90
2023-04-23T07:18:13.742Z,0.82
2023-04-23T07:20:40.296Z,0.80
2023-04-23T07:23:06.992Z,1.02
2023-04-23T07:25:33.396Z,0.73
2023-04-23T07:27:59.934Z,0.98
2023-04-23T07:30:27.910Z,0.73
2023-04-23T07:32:55.694Z,0.80
2023-04-23T07:35:22.274Z,0.80
2023-04-23T07:37:53.707Z,0.70
2023-04-23T07:40:22.353Z,0.80
2023-04-23T07:42:48.878Z,0.77
2023-04-23T07:45:16.080Z,0.80
2023-04-23T07:47:42.594Z,0.70
2023-04-23T07:50:09.830Z,0.80
2023-04-23T07:52:36.278Z,0.80
2023-04-23T07:55:02.994Z,0.98
2023-04-23T07:57:29.448Z,0.75
2023-04-23T07:59:55.998Z,0.80
2023-04-23T08:02:26.182Z,0.95
2023-04-23T08:04:53.385Z,0.90
2023-04-23T08:07:20.061Z,0.75
2023-04-23T08:09:46.925Z,0.70
2023-04-23T08:12:13.730Z,0.70
2023-04-23T08:14:40.126Z,0.77
2023-04-23T08:17:06.575Z,0.70
2023-04-23T08:19:33.748Z,0.70
2023-04-23T08:22:00.245Z,0.65
2023-04-23T08:24:27.229Z,0.60
2023-04-23T08:26:53.689Z,1.48
2023-04-23T08:29:20.115Z,0.98
2023-04-23T08:31:46.635Z,0.80
2023-04-23T08:34:15.003Z,0.70
2023-04-23T08:36:41.561Z,0.80
2023-04-23T08:39:08.023Z,0.55
2023-04-23T08:41:44.912Z,0.77
2023-04-23T08:44:21.744Z,0.80
2023-04-23T08:46:49.058Z,0.77
2023-04-23T08:49:17.213Z,0.73
2023-04-23T08:51:50.866Z,0.73
2023-04-23T08:54:22.177Z,0.60
2023-04-23T08:56:51.031Z,0.70
2023-04-23T08:59:18.592Z,1.00
2023-04-23T09:01:45.212Z,0.68
2023-04-23T09:04:16.846Z,0.77
2023-04-23T09:06:43.572Z,0.90
2023-04-23T09:09:10.613Z,0.80
2023-04-23T09:11:38.176Z,0.93
2023-04-23T09:14:04.855Z,0.70
2023-04-23T09:18:58.917Z,0.77
2023-04-23T09:21:25.337Z,0.77
2023-04-23T09:23:54.984Z,0.80
2023-04-23T09:26:22.766Z,0.80
2023-04-23T09:28:51.358Z,0.90
2023-04-23T09:31:22.800Z,0.82
2023-04-23T09:33:54.105Z,0.95
2023-04-23T09:36:23.859Z,0.80
2023-04-23T09:38:50.849Z,0.70
2023-04-23T09:41:28.292Z,0.70
2023-04-23T09:43:55.989Z,0.80
2023-04-23T09:46:42.944Z,0.80
2023-04-23T09:49:11.638Z,1.00
2023-04-23T09:51:43.410Z,0.70
2023-04-23T09:54:18.803Z,0.80
2023-04-23T09:56:50.464Z,0.90
2023-04-23T09:59:35.523Z,0.90
2023-04-23T10:02:07.832Z,0.80
2023-04-23T10:04:34.734Z,1.00
2023-04-23T10:07:18.010Z,0.80
2023-04-23T10:09:46.273Z,1.02
2023-04-23T10:12:31.417Z,0.80
2023-04-23T10:15:00.314Z,0.80
2023-04-23T10:17:27.237Z,0.80
2023-04-23T10:19:55.846Z,0.80
2023-04-23T10:22:23.093Z,1.00
2023-04-23T10:24:56.035Z,0.95
2023-04-23T10:27:36.762Z,0.82
2023-04-23T10:30:13.191Z,1.00
2023-04-23T10:32:39.740Z,0.80
2023-04-23T10:35:07.813Z,1.20
2023-04-23T10:37:35.925Z,0.88
2023-04-23T10:40:12.432Z,0.90
2023-04-23T10:42:40.629Z,0.80
2023-04-23T10:47:48.118Z,0.90
2023-04-23T10:50:57.592Z,0.93
2023-04-23T10:53:31.622Z,0.90
2023-04-23T10:56:06.564Z,0.90
2023-04-23T10:59:02.557Z,0.85
2023-04-23T11:01:30.363Z,0.90
2023-04-23T11:03:56.968Z,0.90
2023-04-23T11:06:48.325Z,0.90
2023-04-23T11:09:36.195Z,0.98
2023-04-23T11:12:05.818Z,0.90
2023-04-23T11:14:45.309Z,0.90
2023-04-23T11:17:13.455Z,1.00
2023-04-23T11:19:41.570Z,0.90
2023-04-23T11:22:19.312Z,0.85
2023-04-23T11:24:48.759Z,0.95
2023-04-23T11:27:18.252Z,1.05
2023-04-23T11:29:46.375Z,0.90
2023-04-23T11:32:15.871Z,0.95
2023-04-23T11:34:45.050Z,1.08
2023-04-23T11:37:13.046Z,0.85
2023-04-23T11:39:41.385Z,1.00
2023-04-23T11:42:16.067Z,0.80
2023-04-23T11:44:44.017Z,0.88
2023-04-23T11:47:12.655Z,0.90
2023-04-23T11:49:40.498Z,0.90
2023-04-23T11:52:07.373Z,0.75
2023-04-23T11:54:34.292Z,1.00
2023-04-23T11:59:28.623Z,0.80
2023-04-23T12:01:57.215Z,1.25
2023-04-23T12:04:25.878Z,0.80
2023-04-23T12:06:54.383Z,1.30
2023-04-23T12:09:23.486Z,1.15
2023-04-23T12:11:53.314Z,0.77
2023-04-23T12:14:27.080Z,0.88
2023-04-23T12:16:53.569Z,1.00
2023-04-23T12:19:25.440Z,0.82
2023-04-23T12:21:55.051Z,0.88
2023-04-23T12:24:26.512Z,0.90
2023-04-23T12:26:55.015Z,0.90
2023-04-23T12:29:22.987Z,0.90
2023-04-23T12:31:52.275Z,0.90
2023-04-23T12:34:20.484Z,1.20
2023-04-23T12:36:49.518Z,0.80
2023-04-23T12:39:30.384Z,0.88
2023-04-23T12:42:00.741Z,1.00
2023-04-23T12:44:27.334Z,1.00
2023-04-23T12:47:05.078Z,0.82
2023-04-23T12:49:32.728Z,0.98
2023-04-23T12:52:03.282Z,0.80
2023-04-23T12:54:31.515Z,0.82
2023-04-23T12:56:59.350Z,0.90
2023-04-23T12:59:26.470Z,1.20
2023-04-23T13:01:53.006Z,1.23
2023-04-23T13:04:19.795Z,0.82
2023-04-23T13:06:46.494Z,1.10
2023-04-23T13:09:13.435Z,1.00
2023-04-23T13:11:40.969Z,1.00
2023-04-23T13:14:07.970Z,1.08
2023-04-23T13:16:35.028Z,0.98
2023-04-23T13:21:28.149Z,1.08
2023-04-23T13:23:56.703Z,1.00
2023-04-23T13:26:23.169Z,1.30
2023-04-23T13:28:49.698Z,1.00
2023-04-23T13:31:16.225Z,0.85
2023-04-23T13:33:42.898Z,1.00
2023-04-23T13:36:09.324Z,1.00
2023-04-23T13:38:36.214Z,0.90
2023-04-23T13:41:02.693Z,0.90
2023-04-23T13:43:30.287Z,0.98
2023-04-23T13:45:56.944Z,1.00
2023-04-23T13:48:28.514Z,0.90
2023-04-23T13:50:55.640Z,0.85
2023-04-23T13:53:22.236Z,0.95
2023-04-23T13:55:48.780Z,0.80
2023-04-23T13:58:15.392Z,0.80
2023-04-23T14:00:42.843Z,1.02
2023-04-23T14:03:09.366Z,0.90
2023-04-23T14:05:36.093Z,0.90
2023-04-23T14:08:02.647Z,1.00
2023-04-23T14:10:29.070Z,0.82
2023-04-23T14:12:55.957Z,1.00
2023-04-23T14:15:22.725Z,0.95
2023-04-23T14:17:49.603Z,0.70
2023-04-23T14:22:43.058Z,0.90
2023-04-23T14:25:15.764Z,1.00
2023-04-23T14:27:46.632Z,1.00
2023-04-23T14:30:19.650Z,1.00
2023-04-23T14:32:49.439Z,1.00
2023-04-23T14:35:16.814Z,0.90
2023-04-23T14:37:45.289Z,0.70
2023-04-23T14:40:19.857Z,1.08
2023-04-23T14:42:47.955Z,0.95
2023-04-23T14:45:17.799Z,1.10
2023-04-23T14:47:48.007Z,1.00
2023-04-23T14:50:16.124Z,1.15
2023-04-23T14:52:47.279Z,1.63
2023-04-23T14:55:13.792Z,1.10
2023-04-23T14:57:40.258Z,1.10
2023-04-23T15:00:08.262Z,1.10
2023-04-23T15:02:35.089Z,1.33
2023-04-23T15:05:01.826Z,1.27
2023-04-23T15:07:29.191Z,1.30
2023-04-23T15:09:55.629Z,0.98
2023-04-23T15:12:48.222Z,0.90
2023-04-23T15:15:36.881Z,1.33
2023-04-23T15:18:07.561Z,0.80
2023-04-23T15:20:33.995Z,1.00
2023-04-23T15:23:00.542Z,0.70
2023-04-23T15:25:27.019Z,0.90
2023-04-23T15:27:57.876Z,0.82
2023-04-23T15:30:26.103Z,0.80
2023-04-23T15:32:55.388Z,1.00
2023-04-23T15:35:26.438Z,1.52
2023-04-23T15:37:54.310Z,1.58
2023-04-23T15:40:20.972Z,0.95
2023-04-23T15:42:50.137Z,1.00
2023-04-23T15:45:17.012Z,1.20
2023-04-23T15:47:43.514Z,1.10
2023-04-23T15:50:11.726Z,1.40
2023-04-23T15:52:38.645Z,1.20
2023-04-23T15:55:06.081Z,1.00
2023-04-23T15:57:32.518Z,1.33
2023-04-23T15:59:59.283Z,1.40
2023-04-23T16:02:25.995Z,1.20
2023-04-23T16:04:52.602Z,0.93
2023-04-23T16:07:19.080Z,1.30
2023-04-23T16:09:45.518Z,0.90
2023-04-23T16:12:12.742Z,0.90
2023-04-23T16:14:39.886Z,0.98
2023-04-23T16:17:06.324Z,1.00
2023-04-23T16:19:32.860Z,0.85
2023-04-23T16:21:59.377Z,1.30
2023-04-23T16:24:25.802Z,1.67
2023-04-23T16:26:52.561Z,1.05
2023-04-23T16:29:22.587Z,1.33
2023-04-23T16:31:49.859Z,1.20
2023-04-23T16:34:16.538Z,1.13
2023-04-23T16:36:43.076Z,1.30
2023-04-23T16:39:09.648Z,1.33
2023-04-23T16:41:36.082Z,1.20
2023-04-23T16:44:02.567Z,1.15
2023-04-23T16:46:31.162Z,1.00
2023-04-23T16:48:58.055Z,1.00
2023-04-23T16:51:25.028Z,1.60
2023-04-23T16:53:51.450Z,1.70
2023-04-23T16:56:18.066Z,16.52
2023-04-23T16:58:44.506Z,11.02
2023-04-23T17:01:11.090Z,7.32
2023-04-23T17:03:38.985Z,5.43
2023-04-23T17:06:11.330Z,1.77
2023-04-23T17:08:38.698Z,3.15
2023-04-23T17:11:06.693Z,1.90
2023-04-23T17:13:34.197Z,1.30
2023-04-23T17:18:27.624Z,1.10
2023-04-23T17:20:55.006Z,1.20
2023-04-23T17:23:21.418Z,0.90
2023-04-23T17:25:47.858Z,1.60
2023-04-23T17:28:14.368Z,1.30
2023-04-23T17:30:40.836Z,1.70
2023-04-23T17:33:07.305Z,1.30
2023-04-23T17:35:33.845Z,4.40
2023-04-23T17:38:00.306Z,3.05
2023-04-23T17:40:26.858Z,1.73
2023-04-23T17:42:53.320Z,4.38
2023-04-23T17:45:19.842Z,3.80
2023-04-23T17:47:46.660Z,2.80
2023-04-23T17:50:13.124Z,2.50
2023-04-23T17:52:44.166Z,1.67
2023-04-23T17:55:11.036Z,1.23
2023-04-23T17:57:37.631Z,1.63
2023-04-23T18:00:09.617Z,1.50
2023-04-23T18:02:40.447Z,1.25
2023-04-23T18:05:11.765Z,1.30
2023-04-23T18:07:39.107Z,1.30
2023-04-23T18:10:06.506Z,1.30
2023-04-23T18:12:33.086Z,1.58
2023-04-23T18:15:00.916Z,1.30
2023-04-23T18:17:28.020Z,1.40
2023-04-23T18:19:55.244Z,1.40
2023-04-23T18:22:21.737Z,1.48
2023-04-23T18:24:48.394Z,1.50
2023-04-23T18:27:14.786Z,1.60
2023-04-23T18:29:41.419Z,1.63
2023-04-23T18:32:08.427Z,1.38
2023-04-23T18:34:40.067Z,1.30
2023-04-23T18:37:25.043Z,1.60
2023-04-23T18:39:51.732Z,1.58
2023-04-23T18:42:18.099Z,1.55
2023-04-23T18:44:44.564Z,1.60
2023-04-23T18:47:11.116Z,1.75
2023-04-23T18:49:43.735Z,1.48
2023-04-23T18:52:10.242Z,1.83
2023-04-23T18:54:36.600Z,2.00
2023-04-23T18:57:03.276Z,1.80
2023-04-23T18:59:34.038Z,1.42
2023-04-23T19:02:00.715Z,1.70
2023-04-23T19:04:27.344Z,1.60
2023-04-23T19:06:53.883Z,1.30
2023-04-23T19:09:20.342Z,1.42
2023-04-23T19:11:46.800Z,1.80
2023-04-23T19:14:13.233Z,1.00
2023-04-23T19:16:39.902Z,1.20
2023-04-23T19:19:06.380Z,1.20
2023-04-23T19:21:32.967Z,1.30
2023-04-23T19:23:59.503Z,1.10
2023-04-23T19:26:26.002Z,1.33
2023-04-23T19:28:53.337Z,0.90
2023-04-23T19:31:19.871Z,1.00
2023-04-23T19:33:47.589Z,1.45
2023-04-23T19:36:14.639Z,1.17
2023-04-23T19:38:41.253Z,1.30
2023-04-23T19:41:07.844Z,0.90
2023-04-23T19:43:34.524Z,0.90
2023-04-23T19:46:00.970Z,1.40
2023-04-23T19:48:27.463Z,1.00
2023-04-23T19:50:54.780Z,1.23
2023-04-23T19:53:21.636Z,1.20
2023-04-23T19:55:48.179Z,1.27
2023-04-23T19:58:15.930Z,1.02
2023-04-23T20:00:43.814Z,1.50
2023-04-23T20:03:10.676Z,0.88
2023-04-23T20:05:37.664Z,1.05
2023-04-23T20:08:14.460Z,1.20
2023-04-23T20:10:42.232Z,0.73
2023-04-23T20:13:08.624Z,0.88
2023-04-23T20:15:35.109Z,0.80
2023-04-23T20:18:01.608Z,0.93
2023-04-23T20:20:28.205Z,0.60
2023-04-23T20:22:57.721Z,0.93
2023-04-23T20:25:25.732Z,0.80
2023-04-23T20:27:52.970Z,0.90
2023-04-23T20:30:19.572Z,0.63
2023-04-23T20:32:46.388Z,0.90
2023-04-23T20:35:12.953Z,0.88
2023-04-23T20:37:40.742Z,0.90
2023-04-23T20:40:07.896Z,1.00
2023-04-23T20:42:34.459Z,1.05
2023-04-23T20:45:00.875Z,1.00
2023-04-23T20:47:27.948Z,1.10
2023-04-23T20:49:54.387Z,0.80
2023-04-23T20:52:20.978Z,1.00
2023-04-23T20:54:47.495Z,0.80
2023-04-23T20:57:14.185Z,0.95
2023-04-23T20:59:41.694Z,0.90
2023-04-23T21:02:12.939Z,0.80
2023-04-23T21:04:39.538Z,0.95
2023-04-23T21:07:06.095Z,0.85
2023-04-23T21:09:32.859Z,0.90
2023-04-23T21:11:59.467Z,1.00
2023-04-23T21:14:25.947Z,1.60
2023-04-23T21:16:53.128Z,1.15
2023-04-23T21:19:19.604Z,0.88
2023-04-23T21:21:46.013Z,1.13
2023-04-23T21:24:12.716Z,1.08
2023-04-23T21:26:39.229Z,0.90
2023-04-23T21:29:05.698Z,0.88
2023-04-23T21:31:43.747Z,1.08
2023-04-23T21:34:10.178Z,0.98
2023-04-23T21:36:36.893Z,0.90
2023-04-23T21:39:03.570Z,1.00
2023-04-23T21:41:30.185Z,0.98
2023-04-23T21:43:57.191Z,1.20
2023-04-23T21:46:23.881Z,1.10
2023-04-23T21:48:53.769Z,0.90
2023-04-23T21:51:25.019Z,0.90
2023-04-23T21:53:51.658Z,1.00
2023-04-23T21:56:18.127Z,0.98
2023-04-23T21:58:45.187Z,0.85
2023-04-23T22:01:11.860Z,0.82
2023-04-23T22:03:42.416Z,0.93
2023-04-23T22:06:09.743Z,1.02
2023-04-23T22:08:40.246Z,0.82
2023-04-23T22:11:08.028Z,1.10
2023-04-23T22:13:35.120Z,0.90
2023-04-23T22:16:13.420Z,0.90
2023-04-23T22:18:50.318Z,1.15
2023-04-23T22:21:16.754Z,1.13
2023-04-23T22:23:43.349Z,0.90
2023-04-23T22:26:12.868Z,0.98
2023-04-23T22:28:39.296Z,1.00
2023-04-23T22:31:05.672Z,1.10
2023-04-23T22:33:32.054Z,1.10
2023-04-23T22:35:59.725Z,1.00
2023-04-23T22:40:52.488Z,0.90
2023-04-23T22:43:18.878Z,1.15
2023-04-23T22:45:45.411Z,1.10
2023-04-23T22:48:11.920Z,0.98
2023-04-23T22:50:39.959Z,1.20
2023-04-23T22:53:06.733Z,1.00
2023-04-23T22:55:33.154Z,1.15
2023-04-23T22:57:59.666Z,1.13
2023-04-23T23:00:26.391Z,1.00
2023-04-23T23:02:52.970Z,0.80
2023-04-23T23:05:19.602Z,0.90
2023-04-23T23:07:46.068Z,0.80
2023-04-23T23:10:12.577Z,1.48
2023-04-23T23:12:39.262Z,0.98
2023-04-23T23:15:07.612Z,0.93
2023-04-23T23:17:34.036Z,0.95
2023-04-23T23:20:00.494Z,0.80
2023-04-23T23:22:27.118Z,0.90
2023-04-23T23:24:54.015Z,1.05
2023-04-23T23:27:20.374Z,0.90
2023-04-23T23:29:46.801Z,0.80
2023-04-23T23:32:13.246Z,0.80
2023-04-23T23:34:39.662Z,0.88
2023-04-23T23:37:06.091Z,0.70
2023-04-23T23:39:32.502Z,0.80
2023-04-23T23:41:59.805Z,0.60
2023-04-23T23:44:26.726Z,0.85
2023-04-23T23:46:53.303Z,0.90
2023-04-23T23:49:20.315Z,0.75
2023-04-23T23:51:47.161Z,0.65
2023-04-23T23:54:13.949Z,0.80
2023-04-23T23:56:40.468Z,0.80
2023-04-23T23:59:06.928Z,0.90
